West Terre Haute, Indiana
Current Conditions -  °F | °C
As of 8:53 PM on Thursday 20 Nov 2014 (Local Time) from KHUF Reporting Station
Clear Clear  
Wind Chill: 19°   Ceiling: Unl
Heat Index: 26°   Visibility: 10mi
Dew Point: 17°   Wind: 6mph
Humidity: 69%   Direction: 260°W
Pressure: 30.26"   Gusts: NA
Location:  39.47°N, 87.45°W
Report Text: KHUF 210153Z 26005KT 10SM CLR M03/M08 A3026 RMK AO2 SLP253 T10331083
Loading
Personal Weather Stations






























Interactive Weather Map New forecast layout! Learn more

10-Day Weather Forecast

Advertisements
Track Severe Weather on mobile